Time;durP1;ratioP1;P1;durP2;ratioP2;P2;SDS_P1;SDS_P2;PMS_P1;PMS_P2;Temp;Humidity;BMP_temperature;BMP_pressure;BME280_temperature;BME280_humidity;BME280_pressure;Samples;Min_cycle;Max_cycle;Signal;HPM_P1;HPM_P2
2022/12/05 00:01:25;;;;;;;40.60;18.87;;;;;;;-0.46;100.00;100789.72;4184022;28;22563;-67
2022/12/05 00:03:54;;;;;;;36.23;17.97;;;;;;;-0.44;100.00;100782.66;4195786;28;20411;-67
2022/12/05 00:06:23;;;;;;;42.37;18.40;;;;;;;-0.41;100.00;100784.28;4179785;28;21727;-70
2022/12/05 00:08:50;;;;;;;35.27;18.30;;;;;;;-0.45;100.00;100791.41;4194614;28;20235;-67
2022/12/05 00:11:20;;;;;;;40.47;17.70;;;;;;;-0.44;100.00;100782.66;4196904;28;20735;-68
2022/12/05 00:13:47;;;;;;;35.23;18.33;;;;;;;-0.42;100.00;100782.59;4206991;28;20236;-66
2022/12/05 00:16:18;;;;;;;38.53;18.77;;;;;;;-0.43;100.00;100779.13;4184868;28;20245;-69
2022/12/05 00:18:45;;;;;;;36.60;19.20;;;;;;;-0.55;100.00;100784.88;4194641;28;26116;-69
2022/12/05 00:21:20;;;;;;;38.13;19.07;;;;;;;-0.53;100.00;100780.44;4193970;28;20242;-66
2022/12/05 00:23:47;;;;;;;37.07;19.10;;;;;;;-0.57;100.00;100784.09;4195562;28;20414;-67
2022/12/05 00:26:14;;;;;;;34.67;18.43;;;;;;;-0.61;100.00;100785.13;4188096;28;21093;-67
2022/12/05 00:28:41;;;;;;;36.77;18.37;;;;;;;-0.61;100.00;100792.97;4196491;28;23729;-69
2022/12/05 00:31:13;;;;;;;35.87;18.37;;;;;;;-0.61;100.00;100787.75;4195309;28;23049;-66
2022/12/05 00:33:40;;;;;;;35.57;18.80;;;;;;;-0.56;100.00;100795.38;4196241;28;21632;-66
2022/12/05 00:36:09;;;;;;;38.07;17.77;;;;;;;-0.59;100.00;100796.38;4184425;28;20231;-70
2022/12/05 00:38:36;;;;;;;35.70;18.80;;;;;;;-0.56;100.00;100793.66;4189019;28;20240;-68
2022/12/05 00:41:04;;;;;;;35.90;17.73;;;;;;;-0.58;100.00;100790.25;4185724;28;20414;-68
2022/12/05 00:43:31;;;;;;;37.77;19.73;;;;;;;-0.55;100.00;100792.72;4184096;28;20234;-66
2022/12/05 00:46:04;;;;;;;36.50;18.30;;;;;;;-0.52;100.00;100796.97;4179884;28;20225;-66
2022/12/05 00:48:31;;;;;;;35.70;17.83;;;;;;;-0.47;100.00;100798.50;4184951;28;20359;-67
2022/12/05 00:51:04;;;;;;;40.83;18.80;;;;;;;-0.54;100.00;100783.97;4206557;28;22094;-66
2022/12/05 00:53:30;;;;;;;40.10;19.00;;;;;;;-0.58;100.00;100799.84;4203205;28;20249;-68
2022/12/05 00:56:05;;;;;;;37.47;19.40;;;;;;;-0.57;100.00;100791.94;4201156;28;20303;-68
2022/12/05 00:58:32;;;;;;;40.83;20.70;;;;;;;-0.53;100.00;100787.44;4206023;28;20229;-65
2022/12/05 01:01:09;;;;;;;38.87;19.50;;;;;;;-0.61;100.00;100784.28;4199032;28;20233;-67
2022/12/05 01:03:36;;;;;;;45.10;20.40;;;;;;;-0.62;100.00;100780.81;4213761;28;20472;-67
2022/12/05 01:06:04;;;;;;;43.50;21.03;;;;;;;-0.59;100.00;100785.06;4215180;28;20467;-66
2022/12/05 01:08:32;;;;;;;44.37;21.67;;;;;;;-0.55;100.00;100790.09;4201989;28;21281;-66
2022/12/05 01:10:59;;;;;;;39.73;18.67;;;;;;;-0.59;100.00;100788.53;4214692;28;20228;-67
2022/12/05 01:13:26;;;;;;;38.63;19.07;;;;;;;-0.63;100.00;100781.75;4197922;28;20247;-66
2022/12/05 01:15:53;;;;;;;39.43;18.53;;;;;;;-0.65;100.00;100780.97;4189556;28;21129;-68
2022/12/05 01:18:21;;;;;;;36.30;18.63;;;;;;;-0.66;100.00;100771.41;4193798;28;20239;-68
2022/12/05 01:20:47;;;;;;;35.40;18.90;;;;;;;-0.71;100.00;100768.16;4197250;28;20360;-68
2022/12/05 01:23:15;;;;;;;40.53;19.00;;;;;;;-0.69;100.00;100766.31;4199932;28;20305;-67
2022/12/05 01:25:42;;;;;;;37.23;18.90;;;;;;;-0.68;100.00;100773.25;4198904;28;20226;-68
2022/12/05 01:28:09;;;;;;;43.20;20.27;;;;;;;-0.60;100.00;100763.31;4198125;28;20237;-68
2022/12/05 01:30:38;;;;;;;40.60;19.30;;;;;;;-0.56;100.00;100759.66;4194846;28;22014;-69
2022/12/05 01:33:04;;;;;;;36.87;19.10;;;;;;;-0.68;100.00;100760.16;4189881;28;20234;-67
2022/12/05 01:35:32;;;;;;;41.57;19.10;;;;;;;-0.70;100.00;100768.09;4190086;28;23147;-68
2022/12/05 01:38:00;;;;;;;42.77;20.50;;;;;;;-0.71;100.00;100761.16;4190164;28;20229;-66
2022/12/05 01:40:27;;;;;;;41.67;19.23;;;;;;;-0.75;100.00;100758.72;4199745;28;21099;-66
2022/12/05 01:42:53;;;;;;;45.37;20.67;;;;;;;-0.73;100.00;100755.13;4215310;28;20392;-68
2022/12/05 01:45:30;;;;;;;42.50;20.13;;;;;;;-0.72;100.00;100750.78;4193642;28;20248;-66
2022/12/05 01:47:56;;;;;;;43.20;20.43;;;;;;;-0.74;100.00;100763.91;4195912;28;20276;-67
2022/12/05 01:50:23;;;;;;;39.87;20.03;;;;;;;-0.76;100.00;100759.66;4190199;28;20255;-67
2022/12/05 01:52:49;;;;;;;40.07;18.30;;;;;;;-0.69;100.00;100750.66;4202983;28;20345;-67
2022/12/05 01:55:17;;;;;;;41.57;20.27;;;;;;;-0.73;100.00;100764.75;4207689;28;20651;-66
2022/12/05 01:57:45;;;;;;;41.10;20.00;;;;;;;-0.69;100.00;100753.25;4206274;28;20238;-69
2022/12/05 02:00:14;;;;;;;42.87;20.17;;;;;;;-0.71;100.00;100747.25;4213327;28;20273;-68
2022/12/05 02:02:51;;;;;;;43.33;19.87;;;;;;;-0.73;100.00;100749.06;4216033;28;20243;-69
2022/12/05 02:05:35;;;;;;;42.27;20.40;;;;;;;-0.72;100.00;100741.19;4212617;28;20232;-67
2022/12/05 02:08:05;;;;;;;40.87;20.67;;;;;;;-0.66;100.00;100742.66;4201170;28;20229;-66
2022/12/05 02:10:44;;;;;;;44.53;21.13;;;;;;;-0.74;100.00;100734.31;4199064;28;21826;-67
2022/12/05 02:13:36;;;;;;;41.63;20.40;;;;;;;-0.76;100.00;100731.75;4200014;28;21674;-66
2022/12/05 02:16:11;;;;;;;46.63;20.50;;;;;;;-0.73;100.00;100728.16;4208520;28;20239;-67
2022/12/05 02:19:01;;;;;;;41.63;20.03;;;;;;;-0.70;100.00;100731.50;4222520;28;21760;-65
2022/12/05 02:21:42;;;;;;;36.40;18.37;;;;;;;-0.79;100.00;100724.06;4196463;28;20359;-65
2022/12/05 02:24:43;;;;;;;39.77;18.87;;;;;;;-0.80;100.00;100718.91;4199575;28;21217;-66
2022/12/05 02:27:35;;;;;;;47.33;20.47;;;;;;;-0.85;100.00;100721.69;4192622;28;20233;-66
2022/12/05 02:30:13;;;;;;;41.17;18.67;;;;;;;-0.80;100.00;100719.75;4208708;28;20978;-66
2022/12/05 02:33:13;;;;;;;41.20;19.80;;;;;;;-0.76;100.00;100720.47;4196959;28;21620;-65
2022/12/05 02:35:54;;;;;;;49.10;19.87;;;;;;;-0.77;100.00;100722.25;4200419;28;20233;-63
2022/12/05 02:38:25;;;;;;;39.70;20.03;;;;;;;-0.77;100.00;100722.25;4194756;28;20357;-64
2022/12/05 02:41:03;;;;;;;44.13;20.97;;;;;;;-0.73;100.00;100718.56;4198639;28;20233;-65
2022/12/05 02:43:53;;;;;;;38.20;20.07;;;;;;;-0.70;100.00;100722.84;4191927;28;20232;-65
2022/12/05 02:46:23;;;;;;;42.57;20.57;;;;;;;-0.62;100.00;100718.09;4196185;28;20237;-65
2022/12/05 02:48:55;;;;;;;39.73;20.17;;;;;;;-0.68;100.00;100710.53;4182260;28;23063;-65
2022/12/05 02:51:24;;;;;;;40.77;19.33;;;;;;;-0.78;100.00;100698.78;4190283;28;20410;-63
2022/12/05 02:53:50;;;;;;;39.77;18.73;;;;;;;-0.77;100.00;100700.47;4187301;28;20304;-65
2022/12/05 02:56:18;;;;;;;36.33;18.23;;;;;;;-0.88;100.00;100687.88;4214650;28;20240;-65
2022/12/05 02:58:50;;;;;;;39.40;19.17;;;;;;;-0.88;100.00;100687.88;4195952;28;20305;-62
2022/12/05 03:01:18;;;;;;;38.80;19.83;;;;;;;-0.87;100.00;100679.13;4180243;28;20234;-63
2022/12/05 03:03:45;;;;;;;38.57;19.40;;;;;;;-0.82;100.00;100671.97;4198163;28;20249;-65
2022/12/05 03:06:15;;;;;;;42.03;19.97;;;;;;;-0.83;100.00;100672.00;4193088;28;20249;-66
2022/12/05 03:08:58;;;;;;;36.30;18.17;;;;;;;-0.79;100.00;100668.34;4185375;28;20234;-66
2022/12/05 03:11:31;;;;;;;36.27;18.77;;;;;;;-0.81;100.00;100662.34;4189872;28;21168;-67
2022/12/05 03:13:59;;;;;;;38.60;19.10;;;;;;;-0.79;100.00;100671.81;4186316;28;20240;-64
2022/12/05 03:16:34;;;;;;;36.10;18.17;;;;;;;-0.80;100.00;100684.94;4196699;28;20244;-65
2022/12/05 03:19:09;;;;;;;34.00;17.13;;;;;;;-0.79;100.00;100690.09;4190737;28;20235;-63
2022/12/05 03:21:38;;;;;;;35.80;18.43;;;;;;;-0.82;100.00;100682.41;4195046;28;22432;-69
2022/12/05 03:24:10;;;;;;;34.70;16.57;;;;;;;-0.75;100.00;100680.34;4196155;28;20335;-64
2022/12/05 03:26:50;;;;;;;32.50;16.97;;;;;;;-0.74;100.00;100674.22;4192244;28;20229;-65
2022/12/05 03:29:20;;;;;;;31.70;17.03;;;;;;;-0.75;100.00;100688.19;4197267;28;20225;-64
2022/12/05 03:31:58;;;;;;;33.13;16.57;;;;;;;-0.82;100.00;100698.09;4208785;28;20276;-64
2022/12/05 03:34:56;;;;;;;29.83;15.93;;;;;;;-0.86;100.00;100705.19;4199382;28;20362;-65
2022/12/05 03:38:04;;;;;;;32.60;15.30;;;;;;;-0.85;100.00;100706.88;4198095;28;20251;-65
2022/12/05 03:40:41;;;;;;;31.50;15.80;;;;;;;-0.80;100.00;100722.34;4194554;28;21822;-65
2022/12/05 03:43:16;;;;;;;33.43;16.23;;;;;;;-0.87;100.00;100718.31;4209664;28;20233;-63
2022/12/05 03:45:49;;;;;;;33.40;16.13;;;;;;;-0.87;100.00;100716.56;4196694;28;20232;-65
2022/12/05 03:48:24;;;;;;;27.40;15.03;;;;;;;-0.85;100.00;100711.25;4192307;28;20415;-63
2022/12/05 03:50:52;;;;;;;31.90;15.77;;;;;;;-0.89;100.00;100707.94;4196746;28;20256;-67
2022/12/05 03:53:24;;;;;;;29.03;15.50;;;;;;;-0.94;100.00;100716.88;4193998;28;22942;-64
2022/12/05 03:56:06;;;;;;;29.20;16.10;;;;;;;-0.88;100.00;100717.47;4197576;28;20232;-65
2022/12/05 03:58:46;;;;;;;30.23;16.30;;;;;;;-0.77;100.00;100717.00;4193155;28;20289;-63
2022/12/05 04:01:15;;;;;;;30.80;16.57;;;;;;;-0.87;100.00;100719.19;4203298;28;25411;-64
2022/12/05 04:03:52;;;;;;;33.63;16.50;;;;;;;-0.86;100.00;100705.19;4188107;28;20238;-68
2022/12/05 04:06:24;;;;;;;32.20;16.40;;;;;;;-0.89;100.00;100702.72;4183606;28;20311;-67
2022/12/05 04:08:55;;;;;;;31.70;16.80;;;;;;;-0.76;100.00;100700.41;4192606;28;20252;-65
2022/12/05 04:11:24;;;;;;;30.70;16.63;;;;;;;-0.85;100.00;100691.19;4197123;28;20226;-64
2022/12/05 04:13:56;;;;;;;31.00;16.60;;;;;;;-0.80;100.00;100687.53;4183271;28;20257;-64
2022/12/05 04:19:24;;;;;;;29.07;15.57;;;;;;;-0.73;100.00;100697.66;4198985;28;20739;-69
2022/12/05 04:21:53;;;;;;;34.30;16.90;;;;;;;-0.85;100.00;100685.97;4193140;28;21305;-63
2022/12/05 04:27:27;;;;;;;30.07;16.87;;;;;;;-0.88;100.00;100693.09;4195541;28;20241;-65
2022/12/05 04:30:07;;;;;;;33.60;16.73;;;;;;;-0.90;100.00;100685.31;4196169;28;20508;-64
2022/12/05 04:32:40;;;;;;;31.70;16.70;;;;;;;-0.91;100.00;100686.25;4196947;28;22429;-63
2022/12/05 04:35:12;;;;;;;34.13;17.73;;;;;;;-0.98;100.00;100682.22;4192611;28;21361;-64
2022/12/05 04:37:41;;;;;;;34.07;16.73;;;;;;;-0.97;100.00;100676.06;4207249;28;23632;-65
2022/12/05 04:40:40;;;;;;;35.40;17.77;;;;;;;-0.98;100.00;100670.91;4210628;28;22357;-63
2022/12/05 04:43:08;;;;;;;36.00;18.10;;;;;;;-0.96;100.00;100669.94;4199284;28;20391;-66
2022/12/05 04:45:36;;;;;;;30.53;16.80;;;;;;;-1.01;100.00;100671.88;4181505;28;24014;-66
2022/12/05 04:48:07;;;;;;;34.83;18.57;;;;;;;-0.95;100.00;100670.78;4182526;28;20225;-64
2022/12/05 04:50:34;;;;;;;34.17;16.23;;;;;;;-0.97;100.00;100685.66;4186954;28;21466;-67
2022/12/05 04:53:02;;;;;;;32.70;18.23;;;;;;;-0.94;100.00;100682.91;4190215;28;21213;-67
2022/12/05 04:55:30;;;;;;;36.70;18.57;;;;;;;-0.87;100.00;100674.75;4193361;28;20237;-65
2022/12/05 04:58:02;;;;;;;35.37;17.43;;;;;;;-0.92;100.00;100686.31;4192168;28;20306;-65
2022/12/05 05:00:31;;;;;;;34.03;16.67;;;;;;;-0.97;100.00;100677.81;4198442;28;20234;-64
2022/12/05 05:03:07;;;;;;;34.07;17.67;;;;;;;-0.95;100.00;100676.84;4192582;28;20228;-64
2022/12/05 05:05:34;;;;;;;38.63;17.90;;;;;;;-0.97;100.00;100680.44;4190787;28;20612;-64
2022/12/05 05:08:01;;;;;;;31.73;16.73;;;;;;;-1.02;100.00;100675.41;4178190;28;20288;-64
2022/12/05 05:10:43;;;;;;;32.63;16.70;;;;;;;-1.02;100.00;100680.63;4192463;28;20245;-64
2022/12/05 05:13:09;;;;;;;34.73;16.83;;;;;;;-1.01;100.00;100686.69;4197127;28;26439;-65
2022/12/05 05:15:36;;;;;;;34.23;16.40;;;;;;;-0.88;100.00;100683.50;4194233;28;20287;-65
2022/12/05 05:18:03;;;;;;;28.33;15.33;;;;;;;-0.86;100.00;100693.91;4192362;28;22955;-64
2022/12/05 05:20:29;;;;;;;30.03;15.43;;;;;;;-0.87;100.00;100693.06;4190628;28;20236;-65
2022/12/05 05:22:57;;;;;;;28.47;15.53;;;;;;;-0.84;100.00;100689.47;4194058;28;20247;-64
2022/12/05 05:25:24;;;;;;;33.70;15.33;;;;;;;-0.94;100.00;100698.59;4180877;28;20376;-66
2022/12/05 05:27:53;;;;;;;28.73;15.37;;;;;;;-0.91;100.00;100704.53;4183775;28;20651;-67
2022/12/05 05:30:20;;;;;;;29.03;15.30;;;;;;;-0.92;100.00;100704.59;4196078;28;20245;-66
2022/12/05 05:32:47;;;;;;;28.80;15.33;;;;;;;-0.89;100.00;100694.00;4194307;28;20229;-65
2022/12/05 05:35:14;;;;;;;30.13;15.10;;;;;;;-0.86;100.00;100702.56;4190130;28;20229;-64
2022/12/05 05:37:41;;;;;;;30.07;14.80;;;;;;;-0.91;100.00;100696.69;4197423;28;21282;-65
2022/12/05 05:40:09;;;;;;;26.57;15.27;;;;;;;-0.96;100.00;100701.28;4195448;28;20450;-67
2022/12/05 05:42:44;;;;;;;35.23;17.00;;;;;;;-0.98;100.00;100708.31;4215107;28;21017;-64
2022/12/05 05:45:12;;;;;;;29.30;15.37;;;;;;;-0.91;100.00;100709.75;4194238;28;20351;-67
2022/12/05 05:47:39;;;;;;;30.23;15.07;;;;;;;-0.95;100.00;100707.34;4195615;28;20486;-65
2022/12/05 05:50:06;;;;;;;31.97;14.53;;;;;;;-1.01;100.00;100699.75;4195325;28;20265;-65
2022/12/05 05:52:35;;;;;;;30.97;14.90;;;;;;;-0.93;100.00;100698.53;4194820;28;20233;-65
2022/12/05 05:55:04;;;;;;;26.17;14.30;;;;;;;-1.01;100.00;100692.75;4194238;28;23439;-67
2022/12/05 05:57:30;;;;;;;26.67;14.00;;;;;;;-1.01;100.00;100700.59;4191089;28;20231;-65
2022/12/05 05:59:57;;;;;;;34.50;15.43;;;;;;;-0.95;100.00;100702.13;4191678;28;21124;-66
2022/12/05 06:02:24;;;;;;;29.50;14.83;;;;;;;-0.93;100.00;100692.47;4193268;28;20220;-67
2022/12/05 06:04:51;;;;;;;27.30;14.70;;;;;;;-0.91;100.00;100699.31;4188273;28;20608;-65
2022/12/05 06:07:17;;;;;;;29.43;14.57;;;;;;;-0.95;100.00;100696.91;4189848;28;20352;-65
2022/12/05 06:09:43;;;;;;;32.97;15.47;;;;;;;-0.94;100.00;100699.41;4190962;28;21651;-68
2022/12/05 06:12:10;;;;;;;31.67;15.57;;;;;;;-0.97;100.00;100694.34;4191296;28;20613;-66
2022/12/05 06:14:36;;;;;;;26.63;14.33;;;;;;;-0.97;100.00;100694.34;4189740;28;20407;-70
2022/12/05 06:17:03;;;;;;;31.17;15.40;;;;;;;-0.95;100.00;100696.91;4194561;28;20229;-63
2022/12/05 06:19:30;;;;;;;30.40;16.13;;;;;;;-0.93;100.00;100693.31;4191165;28;20240;-66
2022/12/05 06:21:56;;;;;;;31.70;15.80;;;;;;;-0.91;100.00;100694.09;4193122;28;20636;-67
2022/12/05 06:24:23;;;;;;;29.47;15.33;;;;;;;-0.86;100.00;100697.34;4193754;28;20233;-67
2022/12/05 06:26:49;;;;;;;29.73;14.90;;;;;;;-0.75;100.00;100693.41;4188947;28;20287;-65
2022/12/05 06:29:16;;;;;;;29.03;14.93;;;;;;;-0.78;100.00;100698.78;4191798;28;20414;-64
2022/12/05 06:31:48;;;;;;;28.17;15.13;;;;;;;-0.73;100.00;100696.81;4194793;28;21070;-67
2022/12/05 06:34:14;;;;;;;31.60;15.70;;;;;;;-0.83;100.00;100692.91;4210079;28;20233;-67
2022/12/05 06:36:41;;;;;;;30.67;15.80;;;;;;;-0.82;100.00;100697.22;4193644;28;20360;-67
2022/12/05 06:39:08;;;;;;;29.27;15.13;;;;;;;-0.79;100.00;100694.47;4186306;28;20557;-66
2022/12/05 06:41:34;;;;;;;31.33;16.13;;;;;;;-0.76;100.00;100681.28;4202376;28;20377;-63
2022/12/05 06:44:00;;;;;;;30.90;15.37;;;;;;;-0.82;100.00;100689.38;4194031;28;20235;-68
2022/12/05 06:46:28;;;;;;;32.83;16.30;;;;;;;-0.80;100.00;100685.78;4210835;28;20451;-67
2022/12/05 06:48:56;;;;;;;29.40;15.40;;;;;;;-0.81;100.00;100701.53;4199207;28;22048;-65
2022/12/05 06:51:23;;;;;;;33.00;15.90;;;;;;;-0.81;100.00;100704.16;4190922;28;20235;-66
2022/12/05 06:53:49;;;;;;;27.70;14.77;;;;;;;-0.80;100.00;100695.38;4196338;28;20262;-67
2022/12/05 06:56:18;;;;;;;31.90;15.30;;;;;;;-0.80;100.00;100700.59;4197070;28;22325;-68
2022/12/05 06:58:47;;;;;;;30.67;15.47;;;;;;;-0.79;100.00;100712.78;4195400;28;20224;-64
2022/12/05 07:04:01;;;;;;;32.83;16.10;;;;;;;-0.79;100.00;100702.31;4200027;28;20324;-64
2022/12/05 07:06:28;;;;;;;33.30;15.80;;;;;;;-0.70;100.00;100702.78;4198592;28;22285;-63
2022/12/05 07:08:55;;;;;;;32.83;16.23;;;;;;;-0.73;100.00;100704.66;4214612;28;21580;-67
2022/12/05 07:11:21;;;;;;;31.23;16.50;;;;;;;-0.82;100.00;100692.84;4200270;28;23453;-66
2022/12/05 07:13:48;;;;;;;33.00;15.67;;;;;;;-0.73;100.00;100687.19;4199566;28;20260;-66
2022/12/05 07:16:14;;;;;;;35.17;16.30;;;;;;;-0.70;100.00;100696.69;4199497;28;21740;-66
2022/12/05 07:18:41;;;;;;;33.60;17.10;;;;;;;-0.76;100.00;100696.97;4197290;28;20219;-68
2022/12/05 07:21:10;;;;;;;33.80;16.53;;;;;;;-0.72;100.00;100701.97;4197069;28;20391;-67
2022/12/05 07:23:40;;;;;;;32.93;16.00;;;;;;;-0.73;100.00;100702.88;4199149;28;20307;-65
2022/12/05 07:26:09;;;;;;;32.07;16.23;;;;;;;-0.57;100.00;100687.38;4189220;28;20468;-67
2022/12/05 07:28:36;;;;;;;30.40;15.57;;;;;;;-0.50;100.00;100693.19;4212177;28;21896;-68
2022/12/05 07:31:04;;;;;;;31.53;15.00;;;;;;;-0.54;100.00;100682.03;4195570;28;20237;-65
2022/12/05 07:33:31;;;;;;;29.73;14.77;;;;;;;-0.55;100.00;100684.72;4196038;28;20312;-71
2022/12/05 07:36:03;;;;;;;31.60;15.50;;;;;;;-0.61;100.00;100684.97;4194509;28;21713;-71
2022/12/05 07:38:29;;;;;;;31.50;16.60;;;;;;;-0.53;100.00;100683.72;4196809;28;21718;-67
2022/12/05 07:40:56;;;;;;;29.77;15.80;;;;;;;-0.57;100.00;100690.00;4200407;28;20355;-67
2022/12/05 07:43:23;;;;;;;32.10;15.43;;;;;;;-0.58;100.00;100683.09;4194439;28;20238;-66
2022/12/05 07:45:49;;;;;;;33.37;16.40;;;;;;;-0.56;100.00;100680.38;4201492;28;20742;-73
2022/12/05 07:48:16;;;;;;;29.20;15.40;;;;;;;-0.52;100.00;100680.19;4192918;28;20236;-69
2022/12/05 07:50:44;;;;;;;30.10;15.77;;;;;;;-0.51;100.00;100668.81;4216605;28;21729;-67
2022/12/05 07:53:11;;;;;;;33.50;16.13;;;;;;;-0.54;100.00;100671.59;4196365;28;20237;-71
2022/12/05 07:55:38;;;;;;;30.47;15.63;;;;;;;-0.56;100.00;100668.19;4207963;28;20238;-67
2022/12/05 07:58:05;;;;;;;34.17;16.33;;;;;;;-0.56;100.00;100670.81;4194067;28;21726;-66
2022/12/05 08:00:31;;;;;;;31.37;14.73;;;;;;;-0.54;100.00;100657.66;4213948;28;20446;-67
2022/12/05 08:02:58;;;;;;;30.47;14.73;;;;;;;-0.58;100.00;100658.72;4209592;28;20235;-66
2022/12/05 08:05:24;;;;;;;32.90;15.70;;;;;;;-0.52;100.00;100655.81;4207068;28;23240;-70
2022/12/05 08:07:51;;;;;;;34.97;16.17;;;;;;;-0.58;100.00;100653.50;4200787;28;20239;-67
2022/12/05 08:10:18;;;;;;;33.03;15.43;;;;;;;-0.50;100.00;100660.06;4202318;28;21561;-69
2022/12/05 08:12:44;;;;;;;29.43;15.17;;;;;;;-0.48;100.00;100660.84;4185629;28;22894;-70
2022/12/05 08:15:11;;;;;;;32.37;16.00;;;;;;;-0.40;100.00;100657.03;4192574;28;22872;-68
2022/12/05 08:17:38;;;;;;;30.13;15.33;;;;;;;-0.47;100.00;100653.84;4197295;28;20338;-65
2022/12/05 08:20:05;;;;;;;29.67;16.00;;;;;;;-0.46;100.00;100664.25;4222531;28;21167;-63
2022/12/05 08:22:31;;;;;;;31.30;14.37;;;;;;;-0.38;100.00;100661.25;4206432;28;23131;-67
2022/12/05 08:24:58;;;;;;;32.83;15.93;;;;;;;-0.44;100.00;100662.41;4233790;28;23641;-69
2022/12/05 08:27:24;;;;;;;32.20;14.43;;;;;;;-0.41;100.00;100671.88;4194775;28;21773;-68
2022/12/05 08:29:53;;;;;;;35.20;16.00;;;;;;;-0.40;100.00;100678.78;4197123;28;20229;-66
2022/12/05 08:32:19;;;;;;;29.43;13.90;;;;;;;-0.44;100.00;100672.88;4224405;28;20237;-68
2022/12/05 08:34:46;;;;;;;30.27;15.70;;;;;;;-0.44;100.00;100672.03;4218625;28;20223;-67
2022/12/05 08:37:12;;;;;;;29.57;15.20;;;;;;;-0.44;100.00;100680.72;4202410;28;20463;-70
2022/12/05 08:39:39;;;;;;;29.43;15.27;;;;;;;-0.37;100.00;100688.28;4204328;28;23058;-67
2022/12/05 08:42:06;;;;;;;31.77;14.80;;;;;;;-0.32;100.00;100675.84;4214238;28;20319;-70
2022/12/05 08:44:32;;;;;;;31.90;14.97;;;;;;;-0.34;100.00;100681.13;4186223;28;20297;-69
2022/12/05 08:46:59;;;;;;;30.43;15.40;;;;;;;-0.41;100.00;100678.88;4196810;28;20244;-72
2022/12/05 08:49:27;;;;;;;34.13;15.77;;;;;;;-0.32;100.00;100671.47;4221593;28;20243;-70
2022/12/05 08:51:53;;;;;;;33.43;15.17;;;;;;;-0.29;100.00;100670.47;4230516;28;20243;-73
2022/12/05 08:54:20;;;;;;;34.07;16.20;;;;;;;-0.21;100.00;100668.38;4219233;28;21632;-70
2022/12/05 08:56:50;;;;;;;34.97;15.53;;;;;;;-0.17;100.00;100664.66;4220073;28;20244;-75
2022/12/05 08:59:16;;;;;;;31.63;15.60;;;;;;;-0.20;100.00;100659.59;4237984;28;20456;-72
2022/12/05 09:01:43;;;;;;;60.23;24.90;;;;;;;-0.08;100.00;100666.84;4214247;28;20406;-73
2022/12/05 09:04:11;;;;;;;32.73;15.80;;;;;;;-0.07;100.00;100663.34;4205944;28;20307;-69
2022/12/05 09:06:38;;;;;;;29.50;15.10;;;;;;;-0.21;100.00;100657.91;4238239;28;21303;-68
2022/12/05 09:09:07;;;;;;;31.80;14.97;;;;;;;-0.19;100.00;100647.34;4196767;28;20881;-67
2022/12/05 09:11:36;;;;;;;33.40;15.77;;;;;;;-0.30;100.00;100650.47;4204724;28;23019;-70
2022/12/05 09:14:04;;;;;;;35.90;16.40;;;;;;;-0.31;100.00;100651.38;4192534;28;20675;-69
2022/12/05 09:16:34;;;;;;;36.40;15.87;;;;;;;-0.31;100.00;100643.53;4195162;28;20231;-69
2022/12/05 09:19:05;;;;;;;33.60;16.13;;;;;;;-0.22;100.00;100641.34;4198279;28;20319;-69
2022/12/05 09:21:32;;;;;;;30.87;15.87;;;;;;;-0.25;100.00;100633.66;4198526;28;20343;-66
2022/12/05 09:23:59;;;;;;;38.73;16.60;;;;;;;-0.35;100.00;100628.91;4196848;28;20233;-66
2022/12/05 09:26:26;;;;;;;36.83;16.80;;;;;;;-0.37;100.00;100633.38;4195331;28;20292;-66
2022/12/05 09:28:53;;;;;;;32.93;16.17;;;;;;;-0.26;100.00;100628.47;4205667;28;20664;-67
2022/12/05 09:31:23;;;;;;;37.83;16.80;;;;;;;-0.29;100.00;100621.63;4200159;28;21158;-67
2022/12/05 09:33:51;;;;;;;36.07;16.37;;;;;;;-0.20;100.00;100616.91;4194436;28;20231;-68
2022/12/05 09:36:25;;;;;;;37.73;16.20;;;;;;;-0.14;100.00;100622.69;4210081;28;20235;-68
2022/12/05 09:38:53;;;;;;;35.33;16.50;;;;;;;-0.15;100.00;100615.75;4227996;28;20230;-68
2022/12/05 09:44:48;;;;;;;36.20;17.20;;;;;;;-0.02;100.00;100611.66;4197578;28;21227;-67
2022/12/05 09:47:34;;;;;;;35.37;15.83;;;;;;;0.05;100.00;100617.44;4198435;28;20308;-70
2022/12/05 09:50:20;;;;;;;37.27;15.87;;;;;;;0.07;100.00;100610.38;4202651;28;20239;-67
2022/12/05 09:53:05;;;;;;;41.30;16.87;;;;;;;0.28;100.00;100608.47;4196546;28;22978;-50
2022/12/05 09:55:56;;;;;;;35.23;17.37;;;;;;;0.39;100.00;100615.78;4193229;28;20316;-70
2022/12/05 09:58:50;;;;;;;36.77;16.80;;;;;;;0.14;100.00;100608.28;4204257;28;20380;-69
2022/12/05 10:01:19;;;;;;;37.23;16.50;;;;;;;0.03;100.00;100602.75;4194839;28;20235;-69
2022/12/05 10:03:55;;;;;;;36.07;16.97;;;;;;;0.00;100.00;100606.34;4198658;28;20227;-71
2022/12/05 10:06:29;;;;;;;38.30;16.13;;;;;;;-0.06;100.00;100604.84;4194305;28;20246;-73
2022/12/05 10:09:19;;;;;;;38.83;17.73;;;;;;;0.07;100.00;100609.50;4208853;28;20292;-70
2022/12/05 10:11:54;;;;;;;39.13;16.87;;;;;;;-0.02;100.00;100601.19;4195544;28;21861;-68
2022/12/05 10:14:30;;;;;;;40.80;17.60;;;;;;;0.01;100.00;100604.56;4213761;28;20555;-71
2022/12/05 10:17:03;;;;;;;37.00;17.00;;;;;;;-0.10;100.00;100598.06;4188660;28;20279;-70
2022/12/05 10:19:37;;;;;;;41.20;17.57;;;;;;;0.03;100.00;100600.97;4194432;28;20613;-69
2022/12/05 10:22:37;;;;;;;42.47;17.93;;;;;;;0.05;100.00;100600.88;4197289;28;20231;-69
2022/12/05 10:25:05;;;;;;;38.20;16.63;;;;;;;-0.01;100.00;100597.63;4183267;28;20243;-68
2022/12/05 10:27:36;;;;;;;39.37;17.37;;;;;;;-0.03;100.00;100589.00;4205995;28;20273;-72
2022/12/05 10:30:13;;;;;;;46.03;17.77;;;;;;;-0.01;100.00;100589.78;4206632;28;20452;-71
2022/12/05 10:32:53;;;;;;;39.70;18.03;;;;;;;-0.15;100.00;100589.59;4194117;28;22190;-71
2022/12/05 10:35:23;;;;;;;40.90;17.87;;;;;;;-0.16;100.00;100584.47;4198526;28;20252;-69
2022/12/05 10:37:53;;;;;;;40.27;17.80;;;;;;;-0.09;100.00;100578.84;4203886;28;20231;-71
2022/12/05 10:40:20;;;;;;;38.70;17.23;;;;;;;0.01;100.00;100578.41;4216187;28;20324;-74
2022/12/05 10:42:47;;;;;;;41.87;17.13;;;;;;;-0.04;100.00;100576.03;4196596;28;20235;-69
2022/12/05 10:45:21;;;;;;;44.00;18.33;;;;;;;0.09;100.00;100584.09;4203972;28;20247;-71
2022/12/05 10:47:52;;;;;;;38.00;17.93;;;;;;;0.02;100.00;100585.34;4196859;28;22703;-72
2022/12/05 10:50:38;;;;;;;38.00;17.07;;;;;;;0.01;100.00;100583.66;4190860;28;22531;-71
2022/12/05 10:53:05;;;;;;;42.13;18.17;;;;;;;0.01;100.00;100575.81;4209089;28;20269;-69
2022/12/05 10:55:36;;;;;;;44.70;17.90;;;;;;;0.01;100.00;100578.41;4199821;28;21869;-71
2022/12/05 10:58:29;;;;;;;42.73;18.67;;;;;;;0.06;100.00;100582.50;4195889;28;20240;-69
2022/12/05 11:01:05;;;;;;;42.60;17.70;;;;;;;0.13;100.00;100578.66;4197241;28;20233;-71
2022/12/05 11:03:39;;;;;;;46.13;17.40;;;;;;;0.10;100.00;100577.97;4203297;28;20232;-69
2022/12/05 11:06:16;;;;;;;51.80;19.60;;;;;;;0.08;100.00;100572.81;4184247;28;20249;-70
2022/12/05 11:08:51;;;;;;;47.23;19.60;;;;;;;0.09;100.00;100565.78;4223928;28;20232;-70
2022/12/05 11:11:34;;;;;;;43.50;17.87;;;;;;;0.08;100.00;100561.50;4202482;28;20258;-70
2022/12/05 11:14:03;;;;;;;46.43;19.23;;;;;;;0.04;100.00;100557.34;4201385;28;23181;-71
2022/12/05 11:16:31;;;;;;;40.73;17.63;;;;;;;0.08;100.00;100553.66;4201974;28;20230;-72
2022/12/05 11:19:22;;;;;;;51.97;19.10;;;;;;;0.04;100.00;100552.09;4194196;28;23655;-70
2022/12/05 11:21:49;;;;;;;42.97;18.47;;;;;;;0.08;100.00;100549.25;4197926;28;21326;-70
2022/12/05 11:24:26;;;;;;;42.73;18.40;;;;;;;0.12;100.00;100549.97;4198057;28;20228;-71
2022/12/05 11:26:54;;;;;;;45.00;18.83;;;;;;;0.19;100.00;100546.13;4192691;28;20264;-71
2022/12/05 11:29:33;;;;;;;50.40;19.53;;;;;;;0.26;100.00;100542.28;4207409;28;20244;-72
2022/12/05 11:32:03;;;;;;;47.40;20.03;;;;;;;0.24;100.00;100540.66;4204552;28;20233;-70